sensor_id;sensor_type;location;lat;lon;timestamp;pressure;altitude;pressure_sealevel;temperature;humidity
60974;BME280;46846;51.528;5.076;2022-10-31T00:01:41;101529.34;;;13.75;73.35
60974;BME280;46846;51.528;5.076;2022-10-31T00:04:06;101525.03;;;13.71;73.37
60974;BME280;46846;51.528;5.076;2022-10-31T00:06:32;101519.69;;;13.71;73.28
60974;BME280;46846;51.528;5.076;2022-10-31T00:08:58;101521.56;;;13.69;73.42
60974;BME280;46846;51.528;5.076;2022-10-31T00:11:24;101529.56;;;13.69;73.38
60974;BME280;46846;51.528;5.076;2022-10-31T00:13:49;101533.09;;;13.69;73.33
60974;BME280;46846;51.528;5.076;2022-10-31T00:16:33;101534.97;;;13.67;73.27
60974;BME280;46846;51.528;5.076;2022-10-31T00:18:59;101537.59;;;13.69;73.17
60974;BME280;46846;51.528;5.076;2022-10-31T00:21:25;101541.22;;;13.67;73.33
60974;BME280;46846;51.528;5.076;2022-10-31T00:23:50;101542.19;;;13.65;73.22
60974;BME280;46846;51.528;5.076;2022-10-31T00:26:16;101535.00;;;13.65;73.13
60974;BME280;46846;51.528;5.076;2022-10-31T00:28:42;101531.50;;;13.65;73.17
60974;BME280;46846;51.528;5.076;2022-10-31T00:31:08;101532.34;;;13.65;73.26
60974;BME280;46846;51.528;5.076;2022-10-31T00:33:34;101530.59;;;13.64;72.94
60974;BME280;46846;51.528;5.076;2022-10-31T00:36:01;101536.84;;;13.65;72.79
60974;BME280;46846;51.528;5.076;2022-10-31T00:38:27;101532.41;;;13.64;73.18
60974;BME280;46846;51.528;5.076;2022-10-31T00:40:52;101534.16;;;13.65;72.87
60974;BME280;46846;51.528;5.076;2022-10-31T00:43:17;101528.81;;;13.65;72.80
60974;BME280;46846;51.528;5.076;2022-10-31T00:45:43;101531.53;;;13.63;72.79
60974;BME280;46846;51.528;5.076;2022-10-31T00:48:08;101525.34;;;13.63;72.87
60974;BME280;46846;51.528;5.076;2022-10-31T00:50:34;101524.50;;;13.61;73.10
60974;BME280;46846;51.528;5.076;2022-10-31T00:52:59;101516.53;;;13.59;73.13
60974;BME280;46846;51.528;5.076;2022-10-31T00:55:24;101515.66;;;13.59;73.00
60974;BME280;46846;51.528;5.076;2022-10-31T00:57:49;101505.91;;;13.58;72.84
60974;BME280;46846;51.528;5.076;2022-10-31T01:00:14;101507.69;;;13.57;72.88
60974;BME280;46846;51.528;5.076;2022-10-31T01:02:40;101504.16;;;13.57;72.77
60974;BME280;46846;51.528;5.076;2022-10-31T01:05:05;101497.91;;;13.56;72.95
60974;BME280;46846;51.528;5.076;2022-10-31T01:07:30;101499.75;;;13.56;72.76
60974;BME280;46846;51.528;5.076;2022-10-31T01:09:56;101492.63;;;13.54;72.82
60974;BME280;46846;51.528;5.076;2022-10-31T01:12:21;101496.22;;;13.53;72.66
60974;BME280;46846;51.528;5.076;2022-10-31T01:14:46;101496.22;;;13.53;72.98
60974;BME280;46846;51.528;5.076;2022-10-31T01:17:12;101503.44;;;13.51;72.69
60974;BME280;46846;51.528;5.076;2022-10-31T01:19:37;101508.84;;;13.50;72.96
60974;BME280;46846;51.528;5.076;2022-10-31T01:22:03;101515.16;;;13.47;72.89
60974;BME280;46846;51.528;5.076;2022-10-31T01:24:28;101509.00;;;13.45;72.96
60974;BME280;46846;51.528;5.076;2022-10-31T01:26:53;101508.13;;;13.45;72.83
60974;BME280;46846;51.528;5.076;2022-10-31T01:29:18;101511.81;;;13.40;73.11
60974;BME280;46846;51.528;5.076;2022-10-31T01:31:43;101521.56;;;13.42;72.92
60974;BME280;46846;51.528;5.076;2022-10-31T01:34:12;101505.66;;;13.38;73.25
60974;BME280;46846;51.528;5.076;2022-10-31T01:36:38;101505.69;;;13.37;72.91
60974;BME280;46846;51.528;5.076;2022-10-31T01:39:04;101510.19;;;13.36;73.12
60974;BME280;46846;51.528;5.076;2022-10-31T01:41:32;101512.88;;;13.36;72.97
60974;BME280;46846;51.528;5.076;2022-10-31T01:44:47;101508.50;;;13.34;73.09
60974;BME280;46846;51.528;5.076;2022-10-31T01:46:54;101510.31;;;13.32;72.96
60974;BME280;46846;51.528;5.076;2022-10-31T01:49:28;101504.19;;;13.30;72.99
60974;BME280;46846;51.528;5.076;2022-10-31T01:51:58;101506.00;;;13.29;73.15
60974;BME280;46846;51.528;5.076;2022-10-31T01:54:26;101503.31;;;13.29;72.91
60974;BME280;46846;51.528;5.076;2022-10-31T01:56:55;101513.16;;;13.27;72.90
60974;BME280;46846;51.528;5.076;2022-10-31T01:59:21;101501.66;;;13.25;73.00
60974;BME280;46846;51.528;5.076;2022-10-31T02:01:47;101491.94;;;13.22;72.89
60974;BME280;46846;51.528;5.076;2022-10-31T02:04:15;101491.09;;;13.22;72.99
60974;BME280;46846;51.528;5.076;2022-10-31T02:09:09;101486.78;;;13.18;73.05
60974;BME280;46846;51.528;5.076;2022-10-31T02:11:36;101485.88;;;13.17;73.22
60974;BME280;46846;51.528;5.076;2022-10-31T02:14:02;101485.97;;;13.16;72.90
60974;BME280;46846;51.528;5.076;2022-10-31T02:16:27;101495.00;;;13.11;72.94
60974;BME280;46846;51.528;5.076;2022-10-31T02:18:53;101491.47;;;13.11;73.14
60974;BME280;46846;51.528;5.076;2022-10-31T02:21:19;101491.56;;;13.08;73.04
60974;BME280;46846;51.528;5.076;2022-10-31T02:34:09;101495.44;;;12.99;73.02
60974;BME280;46846;51.528;5.076;2022-10-31T02:36:50;101484.81;;;12.97;73.36
60974;BME280;46846;51.528;5.076;2022-10-31T02:42:01;101487.56;;;12.94;73.05
60974;BME280;46846;51.528;5.076;2022-10-31T02:45:11;101491.16;;;12.93;73.00
60974;BME280;46846;51.528;5.076;2022-10-31T02:47:17;101484.06;;;12.92;73.22
60974;BME280;46846;51.528;5.076;2022-10-31T02:49:48;101480.59;;;12.90;72.90
60974;BME280;46846;51.528;5.076;2022-10-31T02:52:19;101480.69;;;12.87;73.22
60974;BME280;46846;51.528;5.076;2022-10-31T02:54:47;101481.59;;;12.86;73.07
60974;BME280;46846;51.528;5.076;2022-10-31T02:57:13;101481.69;;;12.84;73.45
60974;BME280;46846;51.528;5.076;2022-10-31T02:59:39;101483.34;;;12.87;72.87
60974;BME280;46846;51.528;5.076;2022-10-31T03:05:02;101484.38;;;12.83;73.09
60974;BME280;46846;51.528;5.076;2022-10-31T03:10:04;101487.16;;;12.80;72.78
60974;BME280;46846;51.528;5.076;2022-10-31T03:12:38;101489.94;;;12.77;72.98
60974;BME280;46846;51.528;5.076;2022-10-31T03:17:37;101483.66;;;12.78;72.79
60974;BME280;46846;51.528;5.076;2022-10-31T03:20:05;101481.03;;;12.76;72.74
60974;BME280;46846;51.528;5.076;2022-10-31T03:22:31;101479.28;;;12.75;72.81
60974;BME280;46846;51.528;5.076;2022-10-31T03:24:58;101488.31;;;12.73;72.91
60974;BME280;46846;51.528;5.076;2022-10-31T03:27:25;101482.97;;;12.73;72.86
60974;BME280;46846;51.528;5.076;2022-10-31T03:29:52;101492.72;;;12.74;72.62
60974;BME280;46846;51.528;5.076;2022-10-31T03:32:21;101484.78;;;12.70;72.58
60974;BME280;46846;51.528;5.076;2022-10-31T03:34:48;101487.53;;;12.69;72.82
60974;BME280;46846;51.528;5.076;2022-10-31T03:37:15;101492.13;;;12.64;72.77
60974;BME280;46846;51.528;5.076;2022-10-31T03:39:43;101488.59;;;12.63;72.61
60974;BME280;46846;51.528;5.076;2022-10-31T03:42:10;101491.25;;;12.63;72.76
60974;BME280;46846;51.528;5.076;2022-10-31T03:44:36;101478.84;;;12.62;72.65
60974;BME280;46846;51.528;5.076;2022-10-31T03:47:03;101484.13;;;12.64;72.52
60974;BME280;46846;51.528;5.076;2022-10-31T03:49:29;101483.44;;;12.57;72.88
60974;BME280;46846;51.528;5.076;2022-10-31T03:52:10;101478.03;;;12.60;72.58
60974;BME280;46846;51.528;5.076;2022-10-31T03:54:50;101482.53;;;12.58;72.57
60974;BME280;46846;51.528;5.076;2022-10-31T03:57:27;101482.63;;;12.55;72.70
60974;BME280;46846;51.528;5.076;2022-10-31T03:59:55;101478.31;;;12.51;72.63
60974;BME280;46846;51.528;5.076;2022-10-31T04:02:23;101484.44;;;12.54;72.61
60974;BME280;46846;51.528;5.076;2022-10-31T04:04:51;101484.53;;;12.51;72.71
60974;BME280;46846;51.528;5.076;2022-10-31T04:07:16;101483.66;;;12.51;72.73
60974;BME280;46846;51.528;5.076;2022-10-31T04:09:43;101481.84;;;12.51;72.52
60974;BME280;46846;51.528;5.076;2022-10-31T04:12:10;101484.56;;;12.50;72.27
60974;BME280;46846;51.528;5.076;2022-10-31T04:14:38;101490.75;;;12.52;72.24
60974;BME280;46846;51.528;5.076;2022-10-31T04:17:05;101490.75;;;12.52;72.13
60974;BME280;46846;51.528;5.076;2022-10-31T04:19:33;101489.97;;;12.48;72.12
60974;BME280;46846;51.528;5.076;2022-10-31T04:21:58;101487.34;;;12.47;72.39
60974;BME280;46846;51.528;5.076;2022-10-31T04:24:23;101495.53;;;12.40;72.62
60974;BME280;46846;51.528;5.076;2022-10-31T04:26:49;101491.13;;;12.39;72.57
60974;BME280;46846;51.528;5.076;2022-10-31T04:29:14;101489.38;;;12.38;72.38
60974;BME280;46846;51.528;5.076;2022-10-31T04:31:39;101491.13;;;12.39;72.39
60974;BME280;46846;51.528;5.076;2022-10-31T04:34:04;101487.63;;;12.37;72.38
60974;BME280;46846;51.528;5.076;2022-10-31T04:36:29;101485.00;;;12.36;72.39
60974;BME280;46846;51.528;5.076;2022-10-31T04:38:55;101489.38;;;12.38;72.36
60974;BME280;46846;51.528;5.076;2022-10-31T04:41:20;101488.50;;;12.38;71.95
60974;BME280;46846;51.528;5.076;2022-10-31T04:43:45;101489.50;;;12.35;72.02
60974;BME280;46846;51.528;5.076;2022-10-31T04:46:10;101484.16;;;12.35;72.09
60974;BME280;46846;51.528;5.076;2022-10-31T04:48:36;101484.22;;;12.32;72.42
60974;BME280;46846;51.528;5.076;2022-10-31T04:51:01;101485.16;;;12.31;71.85
60974;BME280;46846;51.528;5.076;2022-10-31T04:53:27;101483.38;;;12.32;72.01
60974;BME280;46846;51.528;5.076;2022-10-31T04:55:52;101477.97;;;12.33;71.79
60974;BME280;46846;51.528;5.076;2022-10-31T04:58:17;101477.16;;;12.31;71.88
60974;BME280;46846;51.528;5.076;2022-10-31T05:00:42;101476.28;;;12.30;72.11
60974;BME280;46846;51.528;5.076;2022-10-31T05:03:08;101475.41;;;12.30;71.60
60974;BME280;46846;51.528;5.076;2022-10-31T05:05:33;101471.94;;;12.28;71.98
60974;BME280;46846;51.528;5.076;2022-10-31T05:07:58;101471.00;;;12.29;72.03
60974;BME280;46846;51.528;5.076;2022-10-31T05:10:27;101466.59;;;12.28;71.92
60974;BME280;46846;51.528;5.076;2022-10-31T05:12:53;101464.81;;;12.27;72.05
60974;BME280;46846;51.528;5.076;2022-10-31T05:15:20;101460.41;;;12.26;72.05
60974;BME280;46846;51.528;5.076;2022-10-31T05:17:45;101460.41;;;12.26;71.78
60974;BME280;46846;51.528;5.076;2022-10-31T05:20:11;101464.03;;;12.23;71.79
60974;BME280;46846;51.528;5.076;2022-10-31T05:22:37;101464.97;;;12.22;72.14
60974;BME280;46846;51.528;5.076;2022-10-31T05:25:02;101458.78;;;12.22;71.69
60974;BME280;46846;51.528;5.076;2022-10-31T05:27:28;101459.69;;;12.21;72.04
60974;BME280;46846;51.528;5.076;2022-10-31T05:29:53;101456.16;;;12.20;71.74
60974;BME280;46846;51.528;5.076;2022-10-31T05:32:18;101458.03;;;12.16;71.55
60974;BME280;46846;51.528;5.076;2022-10-31T05:34:43;101456.28;;;12.15;71.92
60974;BME280;46846;51.528;5.076;2022-10-31T05:37:08;101461.63;;;12.15;71.97
60974;BME280;46846;51.528;5.076;2022-10-31T05:39:34;101463.47;;;12.13;71.76
60974;BME280;46846;51.528;5.076;2022-10-31T05:41:59;101459.88;;;12.14;72.02
60974;BME280;46846;51.528;5.076;2022-10-31T05:44:24;101466.16;;;12.13;71.95
60974;BME280;46846;51.528;5.076;2022-10-31T05:46:49;101463.47;;;12.13;71.82
60974;BME280;46846;51.528;5.076;2022-10-31T05:49:15;101457.28;;;12.11;71.87
60974;BME280;46846;51.528;5.076;2022-10-31T05:51:41;101445.81;;;12.09;71.91
60974;BME280;46846;51.528;5.076;2022-10-31T05:54:07;101458.22;;;12.10;71.82
60974;BME280;46846;51.528;5.076;2022-10-31T05:56:32;101451.19;;;12.08;71.47
60974;BME280;46846;51.528;5.076;2022-10-31T05:58:57;101444.91;;;12.09;71.79
60974;BME280;46846;51.528;5.076;2022-10-31T06:01:22;101439.59;;;12.09;71.57
60974;BME280;46846;51.528;5.076;2022-10-31T06:03:48;101440.50;;;12.08;71.79
60974;BME280;46846;51.528;5.076;2022-10-31T06:06:13;101438.81;;;12.05;71.65
60974;BME280;46846;51.528;5.076;2022-10-31T06:08:38;101444.13;;;12.05;71.86
60974;BME280;46846;51.528;5.076;2022-10-31T06:11:03;101443.28;;;12.05;71.81
60974;BME280;46846;51.528;5.076;2022-10-31T06:13:29;101437.09;;;12.02;71.83
60974;BME280;46846;51.528;5.076;2022-10-31T06:15:54;101444.22;;;12.02;71.81
60974;BME280;46846;51.528;5.076;2022-10-31T06:18:19;101439.84;;;11.99;72.10
60974;BME280;46846;51.528;5.076;2022-10-31T06:20:44;101436.31;;;11.99;71.86
60974;BME280;46846;51.528;5.076;2022-10-31T06:23:10;101438.09;;;11.98;71.65
60974;BME280;46846;51.528;5.076;2022-10-31T06:25:35;101442.63;;;11.96;71.84
60974;BME280;46846;51.528;5.076;2022-10-31T06:28:00;101442.63;;;11.96;71.60
60974;BME280;46846;51.528;5.076;2022-10-31T06:30:25;101439.94;;;11.96;71.85
60974;BME280;46846;51.528;5.076;2022-10-31T06:32:51;101442.66;;;11.95;71.59
60974;BME280;46846;51.528;5.076;2022-10-31T06:35:16;101446.25;;;11.94;72.01
60974;BME280;46846;51.528;5.076;2022-10-31T06:37:41;101446.25;;;11.94;71.84
60974;BME280;46846;51.528;5.076;2022-10-31T06:40:07;101440.09;;;11.92;71.91
60974;BME280;46846;51.528;5.076;2022-10-31T06:42:32;101441.03;;;11.90;71.93
60974;BME280;46846;51.528;5.076;2022-10-31T06:44:57;101427.75;;;11.87;71.96
60974;BME280;46846;51.528;5.076;2022-10-31T06:47:23;101422.47;;;11.86;71.98
60974;BME280;46846;51.528;5.076;2022-10-31T06:49:48;101435.75;;;11.87;72.03
60974;BME280;46846;51.528;5.076;2022-10-31T06:52:13;101439.34;;;11.86;71.87
60974;BME280;46846;51.528;5.076;2022-10-31T06:54:38;101441.09;;;11.87;71.73
60974;BME280;46846;51.528;5.076;2022-10-31T06:57:04;101446.44;;;11.87;71.82
60974;BME280;46846;51.528;5.076;2022-10-31T06:59:29;101445.63;;;11.85;71.89
60974;BME280;46846;51.528;5.076;2022-10-31T07:01:54;101443.88;;;11.84;71.81
60974;BME280;46846;51.528;5.076;2022-10-31T07:04:19;101445.66;;;11.84;71.73
60974;BME280;46846;51.528;5.076;2022-10-31T07:06:44;101450.97;;;11.84;71.79
60974;BME280;46846;51.528;5.076;2022-10-31T07:09:10;101450.97;;;11.84;71.61
60974;BME280;46846;51.528;5.076;2022-10-31T07:11:35;101440.31;;;11.84;71.87
60974;BME280;46846;51.528;5.076;2022-10-31T07:14:00;101439.47;;;11.83;71.68
60974;BME280;46846;51.528;5.076;2022-10-31T07:16:25;101444.78;;;11.83;71.91
60974;BME280;46846;51.528;5.076;2022-10-31T07:18:51;101443.03;;;11.82;71.92
60974;BME280;46846;51.528;5.076;2022-10-31T07:21:16;101444.84;;;11.82;71.77
60974;BME280;46846;51.528;5.076;2022-10-31T07:23:41;101455.50;;;11.82;71.77
60974;BME280;46846;51.528;5.076;2022-10-31T07:26:07;101448.34;;;11.82;71.85
60974;BME280;46846;51.528;5.076;2022-10-31T07:28:32;101451.94;;;11.81;71.67
60974;BME280;46846;51.528;5.076;2022-10-31T07:30:58;101459.03;;;11.82;71.94
60974;BME280;46846;51.528;5.076;2022-10-31T07:33:23;101451.03;;;11.82;71.71
60974;BME280;46846;51.528;5.076;2022-10-31T07:35:51;101456.41;;;11.81;71.87
60974;BME280;46846;51.528;5.076;2022-10-31T07:38:16;101451.94;;;11.81;71.45
60974;BME280;46846;51.528;5.076;2022-10-31T07:40:41;101454.59;;;11.81;71.80
60974;BME280;46846;51.528;5.076;2022-10-31T07:43:07;101459.09;;;11.81;71.67
60974;BME280;46846;51.528;5.076;2022-10-31T07:45:32;101456.41;;;11.81;71.83
60974;BME280;46846;51.528;5.076;2022-10-31T07:47:58;101458.19;;;11.80;71.50
60974;BME280;46846;51.528;5.076;2022-10-31T07:50:24;101463.50;;;11.82;71.86
60974;BME280;46846;51.528;5.076;2022-10-31T07:55:24;101457.34;;;11.80;71.68
60974;BME280;46846;51.528;5.076;2022-10-31T07:57:56;101460.91;;;11.79;71.81
60974;BME280;46846;51.528;5.076;2022-10-31T08:00:21;101451.16;;;11.77;71.98
60974;BME280;46846;51.528;5.076;2022-10-31T08:02:47;101453.91;;;11.76;71.90
60974;BME280;46846;51.528;5.076;2022-10-31T08:05:15;101452.03;;;11.78;71.82
60974;BME280;46846;51.528;5.076;2022-10-31T08:07:40;101454.69;;;11.80;71.79
60974;BME280;46846;51.528;5.076;2022-10-31T08:10:05;101454.59;;;11.81;71.66
60974;BME280;46846;51.528;5.076;2022-10-31T08:12:30;101449.28;;;11.81;71.94
60974;BME280;46846;51.528;5.076;2022-10-31T08:14:56;101451.91;;;11.83;71.80
60974;BME280;46846;51.528;5.076;2022-10-31T08:17:21;101448.41;;;11.81;71.76
60974;BME280;46846;51.528;5.076;2022-10-31T08:19:46;101455.47;;;11.83;71.79
60974;BME280;46846;51.528;5.076;2022-10-31T08:22:11;101455.34;;;11.86;71.50
60974;BME280;46846;51.528;5.076;2022-10-31T08:24:37;101445.56;;;11.87;71.37
60974;BME280;46846;51.528;5.076;2022-10-31T08:27:02;101444.69;;;11.86;71.45
60974;BME280;46846;51.528;5.076;2022-10-31T08:29:27;101434.81;;;11.90;71.66
60974;BME280;46846;51.528;5.076;2022-10-31T08:31:52;101433.06;;;11.89;71.56
60974;BME280;46846;51.528;5.076;2022-10-31T08:34:18;101422.34;;;11.90;71.72
60974;BME280;46846;51.528;5.076;2022-10-31T08:36:43;101413.47;;;11.90;71.50
60974;BME280;46846;51.528;5.076;2022-10-31T08:39:10;101413.34;;;11.93;71.45
60974;BME280;46846;51.528;5.076;2022-10-31T08:41:36;101404.47;;;11.94;71.53
60974;BME280;46846;51.528;5.076;2022-10-31T08:44:01;101421.25;;;11.98;71.98
60974;BME280;46846;51.528;5.076;2022-10-31T08:46:26;101428.41;;;11.96;71.19
60974;BME280;46846;51.528;5.076;2022-10-31T08:48:52;101438.22;;;11.95;71.61
60974;BME280;46846;51.528;5.076;2022-10-31T08:51:17;101442.66;;;11.95;71.87
60974;BME280;46846;51.528;5.076;2022-10-31T08:53:42;101441.72;;;11.96;71.94
60974;BME280;46846;51.528;5.076;2022-10-31T08:56:07;101446.09;;;11.98;71.62
60974;BME280;46846;51.528;5.076;2022-10-31T08:58:32;101443.47;;;11.97;71.14
60974;BME280;46846;51.528;5.076;2022-10-31T09:00:59;101437.44;;;11.92;71.34
60974;BME280;46846;51.528;5.076;2022-10-31T09:03:25;101437.34;;;11.93;71.90
60974;BME280;46846;51.528;5.076;2022-10-31T09:05:54;101436.47;;;11.94;71.36
60974;BME280;46846;51.528;5.076;2022-10-31T09:08:19;101430.13;;;11.97;71.57
60974;BME280;46846;51.528;5.076;2022-10-31T09:10:45;101417.72;;;11.96;72.00
60974;BME280;46846;51.528;5.076;2022-10-31T09:13:20;101416.69;;;12.01;71.93
60974;BME280;46846;51.528;5.076;2022-10-31T09:15:46;101410.47;;;12.01;71.90
60974;BME280;46846;51.528;5.076;2022-10-31T09:18:12;101407.72;;;12.04;71.99
60974;BME280;46846;51.528;5.076;2022-10-31T09:20:38;101402.44;;;12.02;71.80
60974;BME280;46846;51.528;5.076;2022-10-31T09:23:05;101399.69;;;12.06;72.05
60974;BME280;46846;51.528;5.076;2022-10-31T09:25:32;101390.56;;;12.13;74.37
60974;BME280;46846;51.528;5.076;2022-10-31T09:27:58;101388.78;;;12.13;73.62
60974;BME280;46846;51.528;5.076;2022-10-31T09:30:23;101385.28;;;12.11;73.37
60974;BME280;46846;51.528;5.076;2022-10-31T09:32:54;101392.34;;;12.12;74.24
60974;BME280;46846;51.528;5.076;2022-10-31T09:35:19;101385.53;;;12.02;72.21
60974;BME280;46846;51.528;5.076;2022-10-31T09:37:44;101372.25;;;12.00;73.21
60974;BME280;46846;51.528;5.076;2022-10-31T09:40:10;101373.09;;;12.02;72.79
60974;BME280;46846;51.528;5.076;2022-10-31T09:45:18;101361.66;;;11.99;72.76
60974;BME280;46846;51.528;5.076;2022-10-31T09:53:13;101358.72;;;12.08;73.63
60974;BME280;46846;51.528;5.076;2022-10-31T09:55:43;101340.19;;;12.03;72.55
60974;BME280;46846;51.528;5.076;2022-10-31T09:58:16;101330.41;;;12.02;73.83
60974;BME280;46846;51.528;5.076;2022-10-31T10:00:43;101308.75;;;12.13;75.46
60974;BME280;46846;51.528;5.076;2022-10-31T10:08:19;101315.56;;;12.22;77.10
60974;BME280;46846;51.528;5.076;2022-10-31T10:13:31;101308.63;;;12.16;76.83
60974;BME280;46846;51.528;5.076;2022-10-31T10:16:08;101318.38;;;12.17;74.58
60974;BME280;46846;51.528;5.076;2022-10-31T10:23:33;101324.53;;;12.20;75.67
60974;BME280;46846;51.528;5.076;2022-10-31T10:26:02;101320.97;;;12.21;77.22
60974;BME280;46846;51.528;5.076;2022-10-31T10:28:29;101327.91;;;12.25;78.10
60974;BME280;46846;51.528;5.076;2022-10-31T10:33:30;101331.69;;;12.19;76.71
60974;BME280;46846;51.528;5.076;2022-10-31T10:36:01;101349.38;;;12.22;76.61
60974;BME280;46846;51.528;5.076;2022-10-31T10:40:57;101333.38;;;12.22;75.17
60974;BME280;46846;51.528;5.076;2022-10-31T10:43:26;101327.91;;;12.25;76.64
60974;BME280;46846;51.528;5.076;2022-10-31T10:48:42;101311.59;;;12.34;77.08
60974;BME280;46846;51.528;5.076;2022-10-31T10:51:10;101308.13;;;12.32;77.04
60974;BME280;46846;51.528;5.076;2022-10-31T10:59:19;101311.72;;;12.31;76.57
60974;BME280;46846;51.528;5.076;2022-10-31T11:01:46;101299.94;;;12.37;77.75
60974;BME280;46846;51.528;5.076;2022-10-31T11:07:04;101265.31;;;12.35;74.91
60974;BME280;46846;51.528;5.076;2022-10-31T11:09:30;101263.69;;;12.31;76.34
60974;BME280;46846;51.528;5.076;2022-10-31T11:11:55;101256.56;;;12.32;75.96
60974;BME280;46846;51.528;5.076;2022-10-31T11:14:21;101248.31;;;12.38;76.72
60974;BME280;46846;51.528;5.076;2022-10-31T11:16:49;101244.28;;;12.51;80.39
60974;BME280;46846;51.528;5.076;2022-10-31T11:19:16;101228.19;;;12.54;80.17
60974;BME280;46846;51.528;5.076;2022-10-31T11:21:42;101227.28;;;12.54;79.62
60974;BME280;46846;51.528;5.076;2022-10-31T11:26:35;101215.59;;;12.58;81.34
60974;BME280;46846;51.528;5.076;2022-10-31T11:29:02;101219.06;;;12.60;81.79
60974;BME280;46846;51.528;5.076;2022-10-31T11:31:28;101218.13;;;12.61;80.00
60974;BME280;46846;51.528;5.076;2022-10-31T11:33:58;101211.50;;;12.48;79.94
60974;BME280;46846;51.528;5.076;2022-10-31T11:36:32;101197.69;;;12.36;78.71
60974;BME280;46846;51.528;5.076;2022-10-31T11:38:59;101185.47;;;12.54;81.84
60974;BME280;46846;51.528;5.076;2022-10-31T11:41:26;101203.59;;;12.44;76.93
60974;BME280;46846;51.528;5.076;2022-10-31T11:44:02;101192.75;;;12.49;79.64
60974;BME280;46846;51.528;5.076;2022-10-31T11:48:59;101170.59;;;12.47;78.02
60974;BME280;46846;51.528;5.076;2022-10-31T11:51:26;101168.63;;;12.52;76.98
60974;BME280;46846;51.528;5.076;2022-10-31T11:53:54;101166.41;;;12.40;76.19
60974;BME280;46846;51.528;5.076;2022-10-31T11:56:20;101156.16;;;12.53;77.79
60974;BME280;46846;51.528;5.076;2022-10-31T11:58:59;101148.59;;;12.40;77.75
60974;BME280;46846;51.528;5.076;2022-10-31T12:01:29;101149.16;;;12.49;76.25
60974;BME280;46846;51.528;5.076;2022-10-31T12:06:34;101144.25;;;12.62;80.83
60974;BME280;46846;51.528;5.076;2022-10-31T12:09:00;101142.34;;;12.65;81.85
60974;BME280;46846;51.528;5.076;2022-10-31T12:11:34;101132.22;;;12.74;82.36
60974;BME280;46846;51.528;5.076;2022-10-31T12:16:49;101108.47;;;12.43;75.90
60974;BME280;46846;51.528;5.076;2022-10-31T12:19:23;101105.97;;;12.39;77.45
60974;BME280;46846;51.528;5.076;2022-10-31T12:24:56;101096.28;;;12.36;76.57
60974;BME280;46846;51.528;5.076;2022-10-31T12:30:02;101082.69;;;12.42;76.46
60974;BME280;46846;51.528;5.076;2022-10-31T12:37:49;101065.41;;;12.53;76.01
60974;BME280;46846;51.528;5.076;2022-10-31T12:50:22;101030.31;;;12.62;76.92
60974;BME280;46846;51.528;5.076;2022-10-31T12:58:24;101003.25;;;12.71;76.95
60974;BME280;46846;51.528;5.076;2022-10-31T13:00:53;100996.56;;;12.61;76.81
60974;BME280;46846;51.528;5.076;2022-10-31T13:03:25;100984.34;;;12.55;77.25
60974;BME280;46846;51.528;5.076;2022-10-31T13:05:53;100986.56;;;12.66;77.85
60974;BME280;46846;51.528;5.076;2022-10-31T13:08:30;100987.66;;;12.83;79.11
60974;BME280;46846;51.528;5.076;2022-10-31T13:11:05;100978.97;;;12.78;76.83
60974;BME280;46846;51.528;5.076;2022-10-31T13:13:34;100968.09;;;12.82;77.54
60974;BME280;46846;51.528;5.076;2022-10-31T13:16:02;100955.38;;;12.89;76.71
60974;BME280;46846;51.528;5.076;2022-10-31T13:18:32;100951.63;;;12.93;77.58
60974;BME280;46846;51.528;5.076;2022-10-31T13:20:58;100944.44;;;12.95;78.60
60974;BME280;46846;51.528;5.076;2022-10-31T13:23:33;100938.19;;;12.95;76.27
60974;BME280;46846;51.528;5.076;2022-10-31T13:25:59;100923.44;;;12.86;76.20
60974;BME280;46846;51.528;5.076;2022-10-31T13:31:01;100924.13;;;13.12;79.30
60974;BME280;46846;51.528;5.076;2022-10-31T13:33:32;100923.91;;;13.17;77.98
60974;BME280;46846;51.528;5.076;2022-10-31T13:36:05;100921.97;;;13.20;79.95
60974;BME280;46846;51.528;5.076;2022-10-31T13:38:54;100920.81;;;13.26;78.20
60974;BME280;46846;51.528;5.076;2022-10-31T13:51:50;100899.63;;;13.42;81.47
60974;BME280;46846;51.528;5.076;2022-10-31T13:54:29;100893.28;;;13.45;80.97
60974;BME280;46846;51.528;5.076;2022-10-31T13:56:56;100891.56;;;13.44;81.44
60974;BME280;46846;51.528;5.076;2022-10-31T13:59:22;100883.19;;;13.51;82.34
60974;BME280;46846;51.528;5.076;2022-10-31T14:04:17;100873.19;;;13.36;80.55
60974;BME280;46846;51.528;5.076;2022-10-31T14:09:17;100873.13;;;13.37;77.49
60974;BME280;46846;51.528;5.076;2022-10-31T14:11:45;100862.16;;;13.44;80.40
60974;BME280;46846;51.528;5.076;2022-10-31T14:14:11;100854.88;;;13.47;79.56
60974;BME280;46846;51.528;5.076;2022-10-31T14:16:36;100859.34;;;13.47;79.55
60974;BME280;46846;51.528;5.076;2022-10-31T14:19:05;100845.00;;;13.49;79.36
60974;BME280;46846;51.528;5.076;2022-10-31T14:21:37;100840.84;;;13.42;77.77
60974;BME280;46846;51.528;5.076;2022-10-31T14:24:03;100833.19;;;13.53;80.37
60974;BME280;46846;51.528;5.076;2022-10-31T14:26:37;100835.75;;;13.57;80.10
60974;BME280;46846;51.528;5.076;2022-10-31T14:31:41;100836.09;;;13.49;76.75
60974;BME280;46846;51.528;5.076;2022-10-31T14:34:23;100837.75;;;13.51;78.94
60974;BME280;46846;51.528;5.076;2022-10-31T14:44:37;100794.41;;;13.64;79.21
60974;BME280;46846;51.528;5.076;2022-10-31T14:52:20;100801.19;;;13.71;78.58
60974;BME280;46846;51.528;5.076;2022-10-31T14:54:49;100800.53;;;13.66;78.20
60974;BME280;46846;51.528;5.076;2022-10-31T14:57:16;100803.88;;;13.71;77.35
60974;BME280;46846;51.528;5.076;2022-10-31T14:59:45;100793.31;;;13.68;78.57
60974;BME280;46846;51.528;5.076;2022-10-31T15:04:59;100773.63;;;13.69;77.85
60974;BME280;46846;51.528;5.076;2022-10-31T15:07:26;100779.56;;;13.76;77.29